createdAt,value
2018-01-02T00:00:09.489Z,7.38
2018-01-02T00:02:44.750Z,7.38
2018-01-02T00:05:19.780Z,7.38
2018-01-02T00:07:54.743Z,7.40
2018-01-02T00:10:29.739Z,7.40
2018-01-02T00:13:04.730Z,7.37
2018-01-02T00:15:39.510Z,7.38
2018-01-02T00:18:14.569Z,7.37
2018-01-02T00:20:49.717Z,7.35
2018-01-02T00:23:24.746Z,7.34
2018-01-02T00:25:59.754Z,7.32
2018-01-02T00:28:34.582Z,7.33
2018-01-02T00:31:09.183Z,7.33
2018-01-02T00:33:44.238Z,7.28
2018-01-02T00:36:19.161Z,7.26
2018-01-02T00:38:54.194Z,7.29
2018-01-02T00:41:29.098Z,7.20
2018-01-02T00:44:03.979Z,7.15
2018-01-02T00:46:38.935Z,7.05
2018-01-02T00:49:13.749Z,7.11
2018-01-02T00:51:48.576Z,7.08
2018-01-02T00:54:23.434Z,7.00
2018-01-02T00:56:58.627Z,6.96
2018-01-02T00:59:33.786Z,6.98
2018-01-02T01:02:08.638Z,6.92
2018-01-02T01:04:43.541Z,6.87
2018-01-02T01:07:17.926Z,6.90
2018-01-02T01:09:53.011Z,6.85
2018-01-02T01:12:28.092Z,6.85
2018-01-02T01:15:03.087Z,6.87
2018-01-02T01:17:38.099Z,6.88
2018-01-02T01:20:13.168Z,6.85
2018-01-02T01:22:47.534Z,6.81
2018-01-02T01:25:22.433Z,6.83
2018-01-02T01:27:57.471Z,6.83
2018-01-02T01:30:32.778Z,6.82
2018-01-02T01:33:07.763Z,6.79
2018-01-02T01:35:42.739Z,6.78
2018-01-02T01:38:17.559Z,6.80
2018-01-02T01:40:52.518Z,6.74
2018-01-02T01:43:27.365Z,6.69
2018-01-02T01:46:02.442Z,6.74
2018-01-02T01:48:48.607Z,6.74
2018-01-02T01:51:23.211Z,6.83
2018-01-02T01:53:58.118Z,6.45
2018-01-02T01:56:33.038Z,6.74
2018-01-02T01:59:08.070Z,6.72
2018-01-02T02:01:43.197Z,6.73
2018-01-02T02:04:18.003Z,6.74
2018-01-02T02:06:52.917Z,6.75
2018-01-02T02:09:27.338Z,6.79
2018-01-02T02:12:02.450Z,6.80
2018-01-02T02:14:36.902Z,6.79
2018-01-02T02:17:11.600Z,6.83
2018-01-02T02:19:46.434Z,6.77
2018-01-02T02:22:21.299Z,6.72
2018-01-02T02:24:56.131Z,6.68
2018-01-02T02:27:31.286Z,6.72
2018-01-02T02:30:06.271Z,6.73
2018-01-02T02:32:41.237Z,6.68
2018-01-02T02:35:16.546Z,6.69
2018-01-02T02:37:51.710Z,6.70
2018-01-02T02:40:26.461Z,6.71
2018-01-02T02:43:00.865Z,6.72
2018-01-02T02:45:35.394Z,6.73
2018-01-02T02:48:10.252Z,6.74
2018-01-02T02:50:44.925Z,6.78
2018-01-02T02:53:19.686Z,6.79
2018-01-02T02:55:54.718Z,6.81
2018-01-02T02:58:29.592Z,6.84
2018-01-02T03:01:04.395Z,6.88
2018-01-02T03:03:39.169Z,6.90
2018-01-02T03:06:14.271Z,6.97
2018-01-02T03:08:49.166Z,6.95
2018-01-02T03:11:24.097Z,6.91
2018-01-02T03:13:59.042Z,6.88
2018-01-02T03:16:33.761Z,6.90
2018-01-02T03:19:08.966Z,6.91
2018-01-02T03:21:43.462Z,6.95
2018-01-02T03:24:18.546Z,6.91
2018-01-02T03:26:53.817Z,6.89
2018-01-02T03:29:28.915Z,6.88
2018-01-02T03:32:03.927Z,6.87
2018-01-02T03:34:39.021Z,6.86
2018-01-02T03:37:13.926Z,6.87
2018-01-02T03:39:48.867Z,6.85
2018-01-02T03:42:23.690Z,6.82
2018-01-02T03:44:58.756Z,6.85
2018-01-02T03:47:33.694Z,6.85
2018-01-02T03:50:08.862Z,6.80
2018-01-02T03:52:43.878Z,6.78
2018-01-02T03:55:18.998Z,6.79
2018-01-02T03:57:54.131Z,6.80
2018-01-02T04:00:29.183Z,6.84
2018-01-02T04:03:03.846Z,6.82
2018-01-02T04:05:39.036Z,6.83
2018-01-02T04:08:13.909Z,6.82
2018-01-02T04:10:48.781Z,6.86
2018-01-02T04:13:23.651Z,6.89
2018-01-02T04:15:58.896Z,6.95
2018-01-02T04:18:33.998Z,6.95
2018-01-02T04:21:08.835Z,6.90
2018-01-02T04:23:43.957Z,6.89
2018-01-02T04:26:19.019Z,6.86
2018-01-02T04:28:53.785Z,6.85
2018-01-02T04:31:28.568Z,6.81
2018-01-02T04:34:03.367Z,6.81
2018-01-02T04:36:38.049Z,6.83
2018-01-02T04:39:12.635Z,6.86
2018-01-02T04:41:47.723Z,6.85
2018-01-02T04:44:22.294Z,6.83
2018-01-02T04:46:56.678Z,6.83
2018-01-02T04:49:31.838Z,6.83
2018-01-02T04:52:06.818Z,6.81
2018-01-02T04:54:40.989Z,6.80
2018-01-02T04:57:16.067Z,6.83
2018-01-02T04:59:51.308Z,6.77
2018-01-02T05:02:26.402Z,6.74
2018-01-02T05:05:01.382Z,6.73
2018-01-02T05:07:35.802Z,6.74
2018-01-02T05:10:10.614Z,6.70
2018-01-02T05:12:45.482Z,6.71
2018-01-02T05:15:20.283Z,6.75
2018-01-02T05:17:55.182Z,6.80
2018-01-02T05:20:30.074Z,6.82
2018-01-02T05:23:05.114Z,6.85
2018-01-02T05:25:40.323Z,6.86
2018-01-02T05:28:15.166Z,6.84
2018-01-02T05:30:49.979Z,6.82
2018-01-02T05:33:24.640Z,6.81
2018-01-02T05:35:59.386Z,6.80
2018-01-02T05:38:34.200Z,6.86
2018-01-02T05:41:09.226Z,6.90
2018-01-02T05:43:44.045Z,6.90
2018-01-02T05:46:19.343Z,6.88
2018-01-02T05:48:54.728Z,6.85
2018-01-02T05:51:29.446Z,6.85
2018-01-02T05:54:04.064Z,6.85
2018-01-02T05:56:39.053Z,6.88
2018-01-02T05:59:14.147Z,6.89
2018-01-02T06:01:48.901Z,6.83
2018-01-02T06:04:23.780Z,6.78
2018-01-02T06:06:59.027Z,6.79
2018-01-02T06:09:34.143Z,6.80
2018-01-02T06:12:08.939Z,6.79
2018-01-02T06:14:43.342Z,6.80
2018-01-02T06:17:18.887Z,6.83
2018-01-02T06:19:53.798Z,6.84
2018-01-02T06:22:28.624Z,6.81
2018-01-02T06:25:03.603Z,6.84
2018-01-02T06:27:38.303Z,6.78
2018-01-02T06:30:12.938Z,6.78
2018-01-02T06:32:48.034Z,6.73
2018-01-02T06:35:23.214Z,6.72
2018-01-02T06:37:58.310Z,6.69
2018-01-02T06:40:33.096Z,6.59
2018-01-02T06:43:07.999Z,6.58
2018-01-02T06:45:42.782Z,6.63
2018-01-02T06:48:17.722Z,6.69
2018-01-02T06:50:52.563Z,6.67
2018-01-02T06:53:27.562Z,6.69
2018-01-02T06:56:01.995Z,6.72
2018-01-02T06:58:37.318Z,6.77
2018-01-02T07:01:12.351Z,6.82
2018-01-02T07:03:47.123Z,6.84
2018-01-02T07:06:22.142Z,6.86
2018-01-02T07:08:57.222Z,6.92
2018-01-02T07:11:32.520Z,6.91
2018-01-02T07:14:07.545Z,6.86
2018-01-02T07:16:41.941Z,6.86
2018-01-02T07:19:16.825Z,6.87
2018-01-02T07:21:52.025Z,6.86
2018-01-02T07:24:27.066Z,6.84
2018-01-02T07:27:02.014Z,6.86
2018-01-02T07:29:36.946Z,6.87
2018-01-02T07:32:12.074Z,6.89
2018-01-02T07:34:46.730Z,6.90
2018-01-02T07:37:21.521Z,6.91
2018-01-02T07:39:56.486Z,6.91
2018-01-02T07:42:31.382Z,6.93
2018-01-02T07:45:06.452Z,6.92
2018-01-02T07:47:41.487Z,6.92
2018-01-02T07:50:16.327Z,6.84
2018-01-02T07:52:51.150Z,6.83
2018-01-02T07:55:26.055Z,6.86
2018-01-02T07:58:00.847Z,6.89
2018-01-02T08:00:35.719Z,6.89
2018-01-02T08:03:10.896Z,6.90
2018-01-02T08:05:45.294Z,6.93
2018-01-02T08:08:20.547Z,6.93
2018-01-02T08:10:55.171Z,6.94
2018-01-02T08:13:30.070Z,6.95
2018-01-02T08:16:05.190Z,6.99
2018-01-02T08:18:41.341Z,7.02
2018-01-02T08:21:16.206Z,7.03
2018-01-02T08:23:50.978Z,7.02
2018-01-02T08:26:26.094Z,7.01
2018-01-02T08:29:01.138Z,6.98
2018-01-02T08:31:36.152Z,7.00
2018-01-02T08:34:10.930Z,6.98
2018-01-02T08:36:45.899Z,7.01
2018-01-02T08:39:20.374Z,7.01
2018-01-02T08:41:55.690Z,7.04
2018-01-02T08:44:30.654Z,7.06
2018-01-02T08:47:05.460Z,7.07
2018-01-02T08:49:40.334Z,7.10
2018-01-02T08:52:15.301Z,7.13
2018-01-02T08:54:50.635Z,7.12
2018-01-02T08:57:25.634Z,7.08
2018-01-02T09:00:00.443Z,7.08
2018-01-02T09:02:35.274Z,7.05
2018-01-02T09:05:10.055Z,7.14
2018-01-02T09:07:44.873Z,7.25
2018-01-02T09:10:19.658Z,7.32
2018-01-02T09:12:54.246Z,7.44
2018-01-02T09:15:28.886Z,7.60
2018-01-02T09:18:03.719Z,7.77
2018-01-02T09:20:39.070Z,7.99
2018-01-02T09:23:14.119Z,8.25
2018-01-02T09:25:49.318Z,8.46
2018-01-02T09:28:24.127Z,8.64
2018-01-02T09:30:58.578Z,8.85
2018-01-02T09:33:33.379Z,8.89
2018-01-02T09:36:08.761Z,8.84
2018-01-02T09:38:43.638Z,8.70
2018-01-02T09:41:18.837Z,8.55
2018-01-02T09:43:53.366Z,8.46
2018-01-02T09:46:28.302Z,8.37
2018-01-02T09:49:03.155Z,8.32
2018-01-02T09:51:37.978Z,8.25
2018-01-02T09:54:12.512Z,8.12
2018-01-02T09:56:47.327Z,7.99
2018-01-02T09:59:22.389Z,7.95
2018-01-02T10:01:57.402Z,7.92
2018-01-02T10:04:32.265Z,7.84
2018-01-02T10:07:07.250Z,7.77
2018-01-02T10:09:42.357Z,7.73
2018-01-02T10:12:17.646Z,7.71
2018-01-02T10:14:52.466Z,7.70
2018-01-02T10:17:27.443Z,7.70
2018-01-02T10:20:02.364Z,7.65
2018-01-02T10:22:37.307Z,7.66
2018-01-02T10:25:12.146Z,7.66
2018-01-02T10:27:47.230Z,7.61
2018-01-02T10:30:22.135Z,7.62
2018-01-02T10:32:56.670Z,7.69
2018-01-02T10:35:31.021Z,7.73
2018-01-02T10:38:05.730Z,7.75
2018-01-02T10:40:41.009Z,7.79
2018-01-02T10:43:15.397Z,7.78
2018-01-02T10:45:50.367Z,7.76
2018-01-02T10:48:24.862Z,7.81
2018-01-02T10:50:59.246Z,7.89
2018-01-02T10:53:33.947Z,8.01
2018-01-02T10:56:08.630Z,8.02
2018-01-02T10:58:43.391Z,7.97
2018-01-02T11:01:23.037Z,7.94
2018-01-02T11:03:57.838Z,7.92
2018-01-02T11:06:32.854Z,7.84
2018-01-02T11:09:07.801Z,7.79
2018-01-02T11:11:47.982Z,7.82
2018-01-02T11:14:27.955Z,7.84
2018-01-02T11:17:02.359Z,7.85
2018-01-02T11:19:37.282Z,7.81
2018-01-02T11:22:12.205Z,7.84
2018-01-02T11:24:47.281Z,7.87
2018-01-02T11:27:22.463Z,7.93
2018-01-02T11:29:57.314Z,7.97
2018-01-02T11:32:32.150Z,7.96
2018-01-02T11:35:07.112Z,7.98
2018-01-02T11:37:42.103Z,8.05
2018-01-02T11:40:17.247Z,8.05
2018-01-02T11:42:52.307Z,8.07
2018-01-02T11:45:27.374Z,8.00
2018-01-02T11:48:02.563Z,7.96
2018-01-02T11:50:37.713Z,7.89
2018-01-02T11:53:12.714Z,7.88
2018-01-02T11:55:48.023Z,7.88
2018-01-02T11:58:23.498Z,7.84
2018-01-02T12:00:58.382Z,7.82
2018-01-02T12:03:32.921Z,7.84
2018-01-02T12:06:07.086Z,7.93
2018-01-02T12:08:41.901Z,8.01
2018-01-02T12:11:16.921Z,7.98
2018-01-02T12:13:52.006Z,7.99
2018-01-02T12:16:27.106Z,7.99
2018-01-02T12:19:02.026Z,7.94
2018-01-02T12:21:36.870Z,7.95
2018-01-02T12:24:12.143Z,8.03
2018-01-02T12:26:47.102Z,8.12
2018-01-02T12:29:22.425Z,8.09
2018-01-02T12:31:57.182Z,8.06
2018-01-02T12:34:32.202Z,8.06
2018-01-02T12:37:06.941Z,8.03
2018-01-02T12:39:41.735Z,8.00
2018-01-02T12:42:16.574Z,7.96
2018-01-02T12:44:51.249Z,7.95
2018-01-02T12:47:26.352Z,8.00
2018-01-02T12:50:01.477Z,8.04
2018-01-02T12:52:36.606Z,8.09
2018-01-02T12:55:11.132Z,8.11
2018-01-02T12:57:45.577Z,8.18
2018-01-02T13:00:20.167Z,8.32
2018-01-02T13:02:55.441Z,8.53
2018-01-02T13:05:29.892Z,8.79
2018-01-02T13:08:04.778Z,8.95
2018-01-02T13:10:39.787Z,8.93
2018-01-02T13:13:14.470Z,8.90
2018-01-02T13:15:49.283Z,9.00
2018-01-02T13:18:24.040Z,9.09
2018-01-02T13:20:58.966Z,9.10
2018-01-02T13:23:33.869Z,9.07
2018-01-02T13:26:09.218Z,9.02
2018-01-02T13:28:44.280Z,9.01
2018-01-02T13:31:19.086Z,8.92
2018-01-02T13:33:54.135Z,8.81
2018-01-02T13:36:29.008Z,8.77
2018-01-02T13:39:03.662Z,8.74
2018-01-02T13:41:38.890Z,8.71
2018-01-02T13:44:13.675Z,8.64
2018-01-02T13:46:48.634Z,8.59
2018-01-02T13:49:23.439Z,8.53
2018-01-02T13:51:58.298Z,8.48
2018-01-02T13:54:33.045Z,8.39
2018-01-02T13:57:07.895Z,8.30
2018-01-02T13:59:42.765Z,8.29
2018-01-02T14:02:17.789Z,8.30
2018-01-02T14:04:52.952Z,8.26
2018-01-02T14:07:27.957Z,8.24
2018-01-02T14:10:03.086Z,8.24
2018-01-02T14:12:37.608Z,8.26
2018-01-02T14:15:12.613Z,8.29
2018-01-02T14:17:47.601Z,8.28
2018-01-02T14:20:22.525Z,8.24
2018-01-02T14:22:57.270Z,8.15
2018-01-02T14:25:32.597Z,8.10
2018-01-02T14:28:07.002Z,8.07
2018-01-02T14:30:42.025Z,8.09
2018-01-02T14:33:17.013Z,8.12
2018-01-02T14:35:52.266Z,8.10
2018-01-02T14:38:27.058Z,8.09
2018-01-02T14:41:01.926Z,8.07
2018-01-02T14:43:36.814Z,7.98
2018-01-02T14:46:11.846Z,7.97
2018-01-02T14:48:46.593Z,7.91
2018-01-02T14:51:21.510Z,7.97
2018-01-02T14:53:56.367Z,7.95
2018-01-02T14:56:31.381Z,7.97
2018-01-02T14:59:06.251Z,7.90
2018-01-02T15:01:41.203Z,7.92
2018-01-02T15:04:16.118Z,7.81
2018-01-02T15:06:51.014Z,7.77
2018-01-02T15:09:25.775Z,7.77
2018-01-02T15:12:00.575Z,7.73
2018-01-02T15:14:35.517Z,7.81
2018-01-02T15:17:10.734Z,7.76
2018-01-02T15:19:45.857Z,7.79
2018-01-02T15:22:20.285Z,7.79
2018-01-02T15:24:54.938Z,7.81
2018-01-02T15:27:30.007Z,7.83
2018-01-02T15:30:04.793Z,7.77
2018-01-02T15:32:39.930Z,7.73
2018-01-02T15:35:14.861Z,7.66
2018-01-02T15:37:49.722Z,7.67
2018-01-02T15:40:25.083Z,7.67
2018-01-02T15:42:59.671Z,7.74
2018-01-02T15:45:34.538Z,7.73
2018-01-02T15:48:08.905Z,7.75
2018-01-02T15:50:43.858Z,7.78
2018-01-02T15:53:19.082Z,7.80
2018-01-02T15:55:54.057Z,7.79
2018-01-02T15:58:28.772Z,7.73
2018-01-02T16:01:03.766Z,7.67
2018-01-02T16:03:39.109Z,7.65
2018-01-02T16:06:14.210Z,7.66
2018-01-02T16:08:49.132Z,7.61
2018-01-02T16:11:24.041Z,7.62
2018-01-02T16:13:59.185Z,7.66
2018-01-02T16:16:34.228Z,7.71
2018-01-02T16:19:09.021Z,7.67
2018-01-02T16:21:43.718Z,7.62
2018-01-02T16:24:18.702Z,7.60
2018-01-02T16:26:53.752Z,7.55
2018-01-02T16:29:28.461Z,7.59
2018-01-02T16:32:03.562Z,7.61
2018-01-02T16:34:39.002Z,7.56
2018-01-02T16:37:14.002Z,7.52
2018-01-02T16:39:48.957Z,7.53
2018-01-02T16:42:24.298Z,7.59
2018-01-02T16:44:59.298Z,7.58
2018-01-02T16:47:33.981Z,7.52
2018-01-02T16:50:09.386Z,7.51
2018-01-02T16:52:44.682Z,7.49
2018-01-02T16:55:19.859Z,7.46
2018-01-02T16:57:54.636Z,7.41
2018-01-02T17:00:29.115Z,7.37
2018-01-02T17:03:03.640Z,7.32
2018-01-02T17:05:38.708Z,7.37
2018-01-02T17:08:13.533Z,7.37
2018-01-02T17:10:48.346Z,7.34
2018-01-02T17:13:23.359Z,7.24
2018-01-02T17:15:58.209Z,7.24
2018-01-02T17:18:33.185Z,7.23
2018-01-02T17:21:08.368Z,7.21
2018-01-02T17:23:43.195Z,7.16
2018-01-02T17:26:17.945Z,7.19
2018-01-02T17:28:52.870Z,7.20
2018-01-02T17:31:27.633Z,7.24
2018-01-02T17:34:02.517Z,7.29
2018-01-02T17:36:37.398Z,7.33
2018-01-02T17:39:12.610Z,7.35
2018-01-02T17:41:47.946Z,7.35
2018-01-02T17:44:22.822Z,7.30
2018-01-02T17:46:57.894Z,7.21
2018-01-02T17:49:32.809Z,7.25
2018-01-02T17:52:07.857Z,7.18
2018-01-02T17:54:42.945Z,7.11
2018-01-02T17:57:17.997Z,7.13
2018-01-02T17:59:53.228Z,7.11
2018-01-02T18:02:28.113Z,7.10
2018-01-02T18:05:03.058Z,7.10
2018-01-02T18:07:38.151Z,7.17
2018-01-02T18:10:13.066Z,7.18
2018-01-02T18:12:47.989Z,7.13
2018-01-02T18:15:23.225Z,7.10
2018-01-02T18:17:58.295Z,7.10
2018-01-02T18:20:32.482Z,7.07
2018-01-02T18:23:07.507Z,7.09
2018-01-02T18:25:42.487Z,7.08
2018-01-02T18:28:17.498Z,7.06
2018-01-02T18:30:52.329Z,7.07
2018-01-02T18:33:27.431Z,6.99
2018-01-02T18:36:02.338Z,6.94
2018-01-02T18:38:37.225Z,6.90
2018-01-02T18:41:12.325Z,6.89
2018-01-02T18:43:47.270Z,6.89
2018-01-02T18:46:22.318Z,6.88
2018-01-02T18:48:57.274Z,6.92
2018-01-02T18:51:32.662Z,6.86
2018-01-02T18:54:07.746Z,6.87
2018-01-02T18:56:42.765Z,6.81
2018-01-02T18:59:17.702Z,6.85
2018-01-02T19:01:52.983Z,6.78
2018-01-02T19:04:28.129Z,6.83
2018-01-02T19:07:03.405Z,6.76
2018-01-02T19:09:38.645Z,6.77
2018-01-02T19:12:13.865Z,6.78
2018-01-02T19:14:48.786Z,6.79
2018-01-02T19:17:23.030Z,6.77
2018-01-02T19:19:57.624Z,6.75
2018-01-02T19:22:32.515Z,6.75
2018-01-02T19:25:06.939Z,6.71
2018-01-02T19:27:42.054Z,6.70
2018-01-02T19:30:16.965Z,6.67
2018-01-02T19:32:51.770Z,6.66
2018-01-02T19:35:26.710Z,6.77
2018-01-02T19:38:01.611Z,6.82
2018-01-02T19:40:36.441Z,6.82
2018-01-02T19:43:11.361Z,6.87
2018-01-02T19:45:46.247Z,6.81
2018-01-02T19:48:21.121Z,6.70
2018-01-02T19:50:56.057Z,6.67
2018-01-02T19:53:31.138Z,6.69
2018-01-02T19:56:05.945Z,6.77
2018-01-02T19:58:40.850Z,6.85
2018-01-02T20:01:15.786Z,6.84
2018-01-02T20:03:51.127Z,6.86
2018-01-02T20:06:26.070Z,6.84
2018-01-02T20:09:00.925Z,6.86
2018-01-02T20:11:35.390Z,6.87
2018-01-02T20:14:10.443Z,6.84
2018-01-02T20:16:45.321Z,6.83
2018-01-02T20:19:20.114Z,6.83
2018-01-02T20:21:54.717Z,6.80
2018-01-02T20:24:29.687Z,6.85
2018-01-02T20:27:04.713Z,6.70
2018-01-02T20:29:39.540Z,6.73
2018-01-02T20:32:14.494Z,6.73
2018-01-02T20:34:49.855Z,6.73
2018-01-02T20:37:24.947Z,6.71
2018-01-02T20:40:00.126Z,6.71
2018-01-02T20:42:35.704Z,6.72
2018-01-02T20:45:11.205Z,6.80
2018-01-02T20:47:46.131Z,6.91
2018-01-02T20:50:21.359Z,6.92
2018-01-02T20:52:56.388Z,6.89
2018-01-02T20:55:31.450Z,6.86
2018-01-02T20:58:06.342Z,6.86
2018-01-02T21:00:43.045Z,6.97
2018-01-02T21:03:17.477Z,6.97
2018-01-02T21:05:52.086Z,7.02
2018-01-02T21:08:27.248Z,7.08
2018-01-02T21:11:02.255Z,7.05
2018-01-02T21:13:37.195Z,7.03
2018-01-02T21:16:12.102Z,7.04
2018-01-02T21:18:47.398Z,6.99
2018-01-02T21:21:22.674Z,7.01
2018-01-02T21:23:57.657Z,7.01
2018-01-02T21:26:32.995Z,7.05
2018-01-02T21:29:07.967Z,7.00
2018-01-02T21:31:43.335Z,7.03
2018-01-02T21:34:18.507Z,7.05
2018-01-02T21:36:53.541Z,7.12
2018-01-02T21:39:28.687Z,7.20
2018-01-02T21:42:03.644Z,7.20
2018-01-02T21:44:38.727Z,7.11
2018-01-02T21:47:15.043Z,7.03
2018-01-02T21:49:50.338Z,7.01
2018-01-02T21:52:25.035Z,6.94
2018-01-02T21:54:59.864Z,6.80
2018-01-02T21:57:34.621Z,6.64
2018-01-02T22:00:09.450Z,6.63
2018-01-02T22:02:44.654Z,6.61
2018-01-02T22:05:19.816Z,6.53
2018-01-02T22:07:54.582Z,6.50
2018-01-02T22:10:29.802Z,6.39
2018-01-02T22:13:04.378Z,6.35
2018-01-02T22:15:39.568Z,6.31
2018-01-02T22:18:15.023Z,6.37
2018-01-02T22:20:49.649Z,6.40
2018-01-02T22:23:24.339Z,6.36
2018-01-02T22:25:59.675Z,6.53
2018-01-02T22:28:34.593Z,6.66
2018-01-02T22:31:09.377Z,6.73
2018-01-02T22:33:43.738Z,6.65
2018-01-02T22:36:18.929Z,6.50
2018-01-02T22:38:54.049Z,6.40
2018-01-02T22:41:29.092Z,6.32
2018-01-02T22:44:04.564Z,6.34
2018-01-02T22:46:39.255Z,6.32
2018-01-02T22:49:15.109Z,6.35
2018-01-02T22:51:49.410Z,6.41
2018-01-02T22:54:24.766Z,6.51
2018-01-02T22:56:59.864Z,6.51
2018-01-02T22:59:34.824Z,6.46
2018-01-02T23:02:09.752Z,6.40
2018-01-02T23:04:44.767Z,6.38
2018-01-02T23:07:19.703Z,6.36
2018-01-02T23:09:54.687Z,6.44
2018-01-02T23:12:29.850Z,6.44
2018-01-02T23:15:05.012Z,6.37
2018-01-02T23:17:39.929Z,6.39
2018-01-02T23:20:15.161Z,6.54
2018-01-02T23:22:49.941Z,6.54
2018-01-02T23:25:24.978Z,6.42
2018-01-02T23:27:59.977Z,6.51
2018-01-02T23:30:34.867Z,6.64
2018-01-02T23:33:09.906Z,6.55
2018-01-02T23:35:44.902Z,6.54
2018-01-02T23:38:20.255Z,6.55
2018-01-02T23:40:55.563Z,6.63
2018-01-02T23:43:31.127Z,6.64
2018-01-02T23:46:05.778Z,6.56
2018-01-02T23:48:40.794Z,6.56
2018-01-02T23:51:15.955Z,6.68
2018-01-02T23:53:50.889Z,6.70
2018-01-02T23:56:26.145Z,6.76
2018-01-02T23:59:01.059Z,6.77
